createdAt,value
2023-04-29T16:58:35.815Z,76.90
2023-04-29T17:03:57.741Z,77.15
2023-04-29T17:09:19.533Z,78.93
2023-04-29T17:14:41.246Z,75.60
2023-04-29T17:20:03.813Z,79.03
2023-04-29T17:25:25.577Z,74.20
2023-04-29T17:30:47.256Z,79.76
2023-04-29T17:36:08.916Z,80.05
2023-04-29T17:41:30.667Z,80.48
2023-04-29T17:46:52.362Z,81.49
2023-04-29T17:52:15.132Z,82.34
2023-04-29T17:57:38.082Z,76.74
2023-04-29T18:02:59.992Z,75.42
2023-04-29T18:08:21.763Z,80.85
2023-04-29T18:13:43.551Z,79.11
2023-04-29T18:19:05.325Z,78.26
2023-04-29T18:24:29.073Z,76.71
2023-04-29T18:29:51.242Z,78.10
2023-04-29T18:35:13.330Z,79.91
2023-04-29T18:40:46.464Z,81.65
2023-04-29T18:46:08.306Z,78.50
2023-04-29T18:51:31.154Z,76.44
2023-04-29T18:56:52.854Z,77.65
2023-04-29T19:02:14.870Z,79.73
2023-04-29T19:07:36.767Z,79.93
2023-04-29T19:12:58.550Z,79.15
2023-04-29T19:18:22.594Z,80.13
2023-04-29T19:23:44.524Z,79.57
2023-04-29T19:29:07.199Z,78.89
2023-04-29T19:34:29.198Z,80.30
2023-04-29T19:39:51.134Z,79.56
2023-04-29T19:45:13.092Z,80.17
2023-04-29T19:50:34.783Z,77.94
2023-04-29T19:55:56.462Z,81.29
2023-04-29T20:01:18.265Z,82.83
2023-04-29T20:06:40.726Z,84.39
2023-04-29T20:12:03.090Z,82.66
2023-04-29T20:17:25.612Z,81.79
2023-04-29T20:22:48.008Z,83.56
2023-04-29T20:28:09.805Z,80.61
2023-04-29T20:33:31.629Z,82.65
2023-04-29T20:38:53.451Z,82.59
2023-04-29T20:44:15.145Z,82.18
2023-04-29T20:49:37.140Z,83.49
2023-04-29T20:54:59.043Z,81.96
2023-04-29T21:00:20.886Z,81.96
2023-04-29T21:05:42.623Z,82.73
2023-04-29T21:11:07.559Z,80.64
2023-04-29T21:16:29.376Z,82.04
2023-04-29T21:21:51.077Z,82.52
2023-04-29T21:27:12.838Z,80.35
2023-04-29T21:32:35.933Z,79.78
2023-04-29T21:37:57.770Z,80.68
2023-04-29T21:43:19.523Z,80.31
2023-04-29T21:48:41.409Z,80.74
2023-04-29T21:54:08.370Z,81.02
2023-04-29T21:59:34.195Z,81.44
2023-04-29T22:04:55.905Z,83.34
2023-04-29T22:10:17.585Z,83.28
2023-04-29T22:15:39.541Z,84.24
2023-04-29T22:21:01.218Z,83.52
2023-04-29T22:26:25.403Z,84.34
2023-04-29T22:31:47.240Z,84.29
2023-04-29T22:37:08.976Z,83.31
2023-04-29T22:42:30.659Z,82.68
2023-04-29T22:47:52.374Z,84.59
2023-04-29T22:53:14.085Z,82.66
2023-04-29T22:58:35.964Z,83.05
2023-04-29T23:03:57.816Z,82.79
2023-04-29T23:09:19.582Z,83.24
2023-04-29T23:14:41.270Z,82.96
2023-04-29T23:20:03.039Z,83.10
2023-04-29T23:25:24.718Z,82.94
2023-04-29T23:30:47.825Z,82.63
2023-04-29T23:36:09.499Z,82.33
2023-04-29T23:41:31.793Z,83.11
2023-04-29T23:46:53.598Z,82.67
2023-04-29T23:52:15.301Z,81.38
2023-04-29T23:57:37.003Z,81.75
